Main page
METAR-TAF:

METAR-TAF

Airports :

Pula Airport

Pula, Croatia

latitude: 44-54N, longitude: 013-55E, elevation: 63 m

Current weather observation

The report was made 31 minutes ago, at 13:00 UTC
Wind 9 kt from the East/Northeast
Temperature 15°C
Humidity 48%
Pressure 1024 hPa
Visibility 10 km or more
no clouds below 1500 m and no cumulonimbus

METAR: LDPL 151300Z 06009KT CAVOK 15/04 Q1024 NOSIG

Time: 14:31 (13:31 UTC)

Forecast

The report was made 2 hours and 6 minutes ago, at 11:25 UTC
Forecast valid from 15 at 12 UTC to 16 at 12 UTC
Wind 14 kt from the East/Northeast
Visibility 10 km or more
no clouds below 1500 m and no cumulonimbus
Temporary
from 15 at 20 UTC to 16 at 12 UTC
Wind 15 kt from the East/Northeast with gusts up to 25 kt

TAF: LDPL 151125Z 1512/1612 07014KT CAVOK TX16/1513Z TN08/1605Z TEMPO 1520/1612 06015G25KT

Weather observations and forecasts of more than 4000 airports (METAR and TAF reports).

The available stations are represented by yellow and red dots on the map.

Hover mouse over dot to see the name of the station.

Then click to see weather observations and forecasts.

To change the map : click on the green buttons with a black cross to zoom in, on the green button with a dash to zoom out, or on the green arrows for adjacent maps.


METAR-TAF: